Time;durP1;ratioP1;P1;durP2;ratioP2;P2;SDS_P1;SDS_P2;PMS_P1;PMS_P2;Temp;Humidity;BMP_temperature;BMP_pressure;BME280_temperature;BME280_humidity;BME280_pressure;Samples;Min_cycle;Max_cycle;Signal;HPM_P1;HPM_P2
2023/01/20 00:00:18;;;;;;;5.68;2.95;;;1.40;99.50;;;;;;20494787;28;20078;-46
2023/01/20 00:10:19;;;;;;;4.13;1.90;;;1.40;99.00;;;;;;20487570;28;20129;-46
2023/01/20 00:20:20;;;;;;;3.15;1.25;;;1.40;98.70;;;;;;20485938;28;20043;-46
2023/01/20 00:30:21;;;;;;;6.95;3.40;;;1.30;98.70;;;;;;20487674;28;21811;-46
2023/01/20 00:40:22;;;;;;;4.35;2.75;;;1.30;98.20;;;;;;20481016;28;20035;-46
2023/01/20 00:50:23;;;;;;;7.38;3.35;;;1.30;98.30;;;;;;20473965;28;20275;-46
2023/01/20 01:00:24;;;;;;;9.68;4.97;;;1.20;97.90;;;;;;20482756;28;20043;-46
2023/01/20 01:10:25;;;;;;;13.07;5.03;;;1.20;98.70;;;;;;20480493;28;20235;-46
2023/01/20 01:20:27;;;;;;;12.23;6.90;;;1.20;99.40;;;;;;20481474;28;20688;-46
2023/01/20 01:30:28;;;;;;;14.85;8.45;;;1.20;99.70;;;;;;20484285;28;20291;-45
2023/01/20 01:40:29;;;;;;;18.38;10.40;;;1.30;99.90;;;;;;20483494;28;20107;-46
2023/01/20 01:50:44;;;;;;;23.48;9.32;;;1.30;99.90;;;;;;20483108;28;20513;-46
2023/01/20 02:00:46;;;;;;;15.93;8.88;;;1.20;99.90;;;;;;20481017;28;21066;-45
2023/01/20 02:10:47;;;;;;;15.85;10.30;;;1.30;99.90;;;;;;20474834;28;20549;-46
2023/01/20 02:21:15;;;;;;;15.93;9.20;;;1.40;99.90;;;;;;20480490;28;20426;-45
2023/01/20 02:31:38;;;;;;;17.95;10.00;;;1.30;99.90;;;;;;20479060;28;20944;-45
2023/01/20 02:42:10;;;;;;;16.98;9.27;;;1.30;99.90;;;;;;20479069;28;20079;-46
2023/01/20 02:52:15;;;;;;;19.92;9.38;;;1.20;99.90;;;;;;20458873;28;20333;-46
2023/01/20 03:02:21;;;;;;;16.87;8.13;;;1.10;99.90;;;;;;20491651;28;20858;-45
2023/01/20 03:13:03;;;;;;;13.90;9.10;;;1.10;99.90;;;;;;20486550;28;20046;-45
2023/01/20 03:23:04;;;;;;;27.98;12.52;;;0.90;99.90;;;;;;20428994;28;20316;-45
2023/01/20 03:33:06;;;;;;;23.80;13.55;;;0.90;99.90;;;;;;20488323;28;20300;-45
2023/01/20 03:43:28;;;;;;;29.98;12.18;;;0.80;99.90;;;;;;20480628;28;20066;-45
2023/01/20 03:53:29;;;;;;;19.40;11.10;;;0.70;99.90;;;;;;20475306;28;20053;-46
2023/01/20 04:03:34;;;;;;;22.15;14.10;;;0.90;99.90;;;;;;20479515;28;20049;-45
2023/01/20 04:13:35;;;;;;;22.60;12.77;;;0.80;99.90;;;;;;20485837;28;20047;-46
2023/01/20 04:23:43;;;;;;;26.33;14.30;;;0.80;99.90;;;;;;20477160;28;20050;-46
2023/01/20 04:33:44;;;;;;;34.47;15.75;;;0.80;99.90;;;;;;20471839;28;20865;-45
2023/01/20 04:43:45;;;;;;;30.02;15.02;;;0.80;99.90;;;;;;20459498;28;20519;-46
2023/01/20 04:53:46;;;;;;;35.65;16.73;;;0.90;99.90;;;;;;20470951;28;20554;-45
2023/01/20 05:03:47;;;;;;;34.60;19.38;;;0.90;99.90;;;;;;20477151;28;20448;-46
2023/01/20 05:13:48;;;;;;;38.08;17.40;;;1.00;99.90;;;;;;20468012;28;20114;-45
2023/01/20 05:23:52;;;;;;;33.30;17.17;;;1.00;99.90;;;;;;20483325;28;20137;-46
2023/01/20 05:33:53;;;;;;;34.03;18.77;;;1.00;99.90;;;;;;20470983;28;20065;-46
2023/01/20 05:43:54;;;;;;;55.35;18.80;;;0.90;99.90;;;;;;20468248;28;20121;-46
2023/01/20 05:53:55;;;;;;;35.17;17.30;;;0.90;99.90;;;;;;20472524;28;20041;-46
2023/01/20 06:03:56;;;;;;;27.65;15.98;;;0.80;99.90;;;;;;20475404;28;20039;-47
2023/01/20 06:13:57;;;;;;;36.55;18.15;;;0.80;99.90;;;;;;20473527;28;20350;-47
2023/01/20 06:23:58;;;;;;;42.08;17.50;;;0.80;99.90;;;;;;20478817;28;20506;-46
2023/01/20 06:33:59;;;;;;;40.45;21.20;;;0.90;99.90;;;;;;20496474;28;20035;-47
2023/01/20 06:44:00;;;;;;;38.20;21.83;;;0.90;99.90;;;;;;20494677;28;20054;-47
2023/01/20 06:54:01;;;;;;;50.45;22.70;;;0.90;99.90;;;;;;20498063;28;20094;-47
2023/01/20 07:04:02;;;;;;;39.33;20.95;;;0.90;99.90;;;;;;20490747;28;20043;-47
2023/01/20 07:14:04;;;;;;;45.92;21.25;;;1.00;99.90;;;;;;20482049;28;20498;-46
2023/01/20 07:24:05;;;;;;;36.47;18.83;;;1.00;99.90;;;;;;20476302;28;20079;-46
2023/01/20 07:34:06;;;;;;;35.47;19.48;;;1.00;99.90;;;;;;20471538;28;20067;-47
2023/01/20 07:44:07;;;;;;;44.50;20.55;;;1.10;99.90;;;;;;20467852;28;20570;-46
2023/01/20 07:54:10;;;;;;;27.02;17.25;;;1.10;99.90;;;;;;20470698;28;20486;-46
2023/01/20 08:04:12;;;;;;;34.47;19.92;;;1.10;99.90;;;;;;20469916;28;21093;-46
2023/01/20 08:14:13;;;;;;;44.28;17.23;;;1.20;99.90;;;;;;20474021;28;20412;-46
2023/01/20 08:24:14;;;;;;;23.10;14.40;;;1.10;99.90;;;;;;20470895;28;20967;-46
2023/01/20 08:34:17;;;;;;;28.17;16.08;;;1.20;99.90;;;;;;20420517;28;20134;-46
2023/01/20 08:44:19;;;;;;;28.33;15.75;;;1.20;99.90;;;;;;20476730;28;20082;-46
2023/01/20 08:54:21;;;;;;;27.85;14.35;;;1.30;99.90;;;;;;20465561;28;20519;-46
2023/01/20 09:04:22;;;;;;;29.98;16.42;;;1.30;99.90;;;;;;20475059;28;20121;-46
2023/01/20 09:14:24;;;;;;;24.05;14.10;;;1.30;99.90;;;;;;20471684;28;20039;-46
2023/01/20 09:24:25;;;;;;;26.40;13.48;;;1.20;99.90;;;;;;20442407;28;20097;-46
2023/01/20 09:34:28;;;;;;;21.65;11.77;;;1.20;99.90;;;;;;20468751;28;20078;-46
2023/01/20 09:44:52;;;;;;;23.00;13.35;;;1.00;99.90;;;;;;20465460;28;20121;-46
2023/01/20 09:55:06;;;;;;;21.52;9.60;;;1.10;99.90;;;;;;20472830;28;20874;-46
2023/01/20 10:05:15;;;;;;;17.00;9.55;;;1.10;99.90;;;;;;20481933;28;20669;-46
2023/01/20 10:15:36;;;;;;;17.25;10.10;;;1.00;99.90;;;;;;20467575;28;20915;-46
2023/01/20 10:25:48;;;;;;;21.02;9.75;;;1.00;99.90;;;;;;20454289;28;20118;-46
2023/01/20 10:35:55;;;;;;;18.48;8.48;;;1.00;99.90;;;;;;20466733;28;20927;-47
2023/01/20 10:46:02;;;;;;;11.43;8.23;;;1.10;99.90;;;;;;20481750;28;20071;-47
2023/01/20 10:56:03;;;;;;;;;;;1.10;99.90;;;;;;20468344;28;20063;-47
2023/01/20 11:06:05;;;;;;;12.10;6.38;;;1.20;99.90;;;;;;20472730;28;21162;-46
2023/01/20 11:16:15;;;;;;;10.30;6.57;;;1.20;99.90;;;;;;20465872;28;20487;-46
2023/01/20 11:26:23;;;;;;;10.20;7.55;;;1.40;99.90;;;;;;20468635;28;22040;-45
2023/01/20 11:36:26;;;;;;;8.45;4.80;;;1.50;99.90;;;;;;20465562;28;20491;-45
2023/01/20 11:46:32;;;;;;;14.02;6.45;;;1.40;99.90;;;;;;20488445;28;20362;-45
2023/01/20 11:56:42;;;;;;;9.60;4.70;;;1.30;99.90;;;;;;20471665;28;20062;-45
2023/01/20 12:06:57;;;;;;;14.30;6.28;;;1.40;99.90;;;;;;20465908;28;21771;-45
2023/01/20 12:17:19;;;;;;;9.73;5.50;;;1.40;99.90;;;;;;20469358;28;20116;-46
2023/01/20 12:27:26;;;;;;;9.50;5.05;;;1.40;99.90;;;;;;20476086;28;20743;-46
2023/01/20 12:37:30;;;;;;;;;;;1.40;99.90;;;;;;20467391;28;20079;-46
2023/01/20 12:47:45;;;;;;;14.00;6.80;;;1.40;99.90;;;;;;20464398;28;20024;-46
2023/01/20 12:58:09;;;;;;;18.25;8.35;;;1.40;99.90;;;;;;20462676;28;20908;-46
2023/01/20 13:08:22;;;;;;;15.30;6.38;;;1.50;99.90;;;;;;20460367;28;20150;-46
2023/01/20 13:18:41;;;;;;;12.05;5.63;;;1.60;99.90;;;;;;20464356;28;20887;-45
2023/01/20 13:28:54;;;;;;;10.30;5.95;;;1.70;99.90;;;;;;20466282;28;20067;-46
2023/01/20 13:39:30;;;;;;;13.10;6.47;;;1.70;99.90;;;;;;20462224;28;20080;-45
2023/01/20 13:49:45;;;;;;;14.23;7.45;;;1.80;99.90;;;;;;20463859;28;20226;-45
2023/01/20 13:59:46;;;;;;;16.75;8.45;;;1.80;99.90;;;;;;20466855;28;20882;-45
2023/01/20 14:09:52;;;;;;;21.80;9.60;;;1.70;99.90;;;;;;20462571;28;20074;-46
2023/01/20 14:19:55;;;;;;;16.00;7.67;;;1.80;99.90;;;;;;20460239;28;20063;-46
2023/01/20 14:29:59;;;;;;;10.73;6.85;;;1.80;99.90;;;;;;20474042;28;20102;-45
2023/01/20 14:40:18;;;;;;;11.00;7.95;;;1.80;99.90;;;;;;20470245;28;20039;-45
2023/01/20 14:50:20;;;;;;;17.20;8.93;;;2.00;99.90;;;;;;20474933;28;20838;-45
2023/01/20 15:00:29;;;;;;;19.48;8.27;;;2.00;99.90;;;;;;20471430;28;20054;-45
2023/01/20 15:10:30;;;;;;;17.05;9.00;;;2.00;99.90;;;;;;20472819;28;20070;-45
2023/01/20 15:20:32;;;;;;;18.23;8.77;;;2.00;99.90;;;;;;20471356;28;20106;-45
2023/01/20 15:30:33;;;;;;;12.90;8.73;;;2.10;99.90;;;;;;20471538;28;20173;-45
2023/01/20 15:40:38;;;;;;;16.23;8.55;;;2.00;99.90;;;;;;20471466;28;20046;-45
2023/01/20 15:50:40;;;;;;;11.82;7.47;;;2.00;99.90;;;;;;20462249;28;20129;-44
2023/01/20 16:00:42;;;;;;;14.95;8.07;;;2.00;99.90;;;;;;20468888;28;20998;-44
2023/01/20 16:10:44;;;;;;;13.10;6.97;;;2.00;99.90;;;;;;20462940;28;20428;-44
2023/01/20 16:20:46;;;;;;;12.05;7.50;;;2.00;99.90;;;;;;20473690;28;20090;-43
2023/01/20 16:30:48;;;;;;;13.30;8.45;;;2.00;99.90;;;;;;20460369;28;20066;-43
2023/01/20 16:41:00;;;;;;;11.93;6.93;;;2.00;99.90;;;;;;20466105;28;20070;-43
2023/01/20 16:51:04;;;;;;;12.88;6.28;;;2.10;99.90;;;;;;20456821;28;22690;-43
2023/01/20 17:01:10;;;;;;;9.93;6.10;;;2.00;99.90;;;;;;20460255;28;20066;-43
2023/01/20 17:11:32;;;;;;;15.82;8.43;;;2.10;99.90;;;;;;20459446;28;20070;-43
2023/01/20 17:21:36;;;;;;;36.35;6.65;;;2.10;99.90;;;;;;20454425;28;20277;-43
2023/01/20 17:31:39;;;;;;;14.23;8.35;;;2.20;99.90;;;;;;20456712;28;20102;-44
2023/01/20 17:41:40;;;;;;;13.70;7.28;;;2.10;99.90;;;;;;20469562;28;20075;-44
2023/01/20 17:51:41;;;;;;;10.68;6.47;;;2.10;99.90;;;;;;20459306;28;20042;-46
2023/01/20 18:01:43;;;;;;;10.00;6.88;;;2.10;99.90;;;;;;20453843;28;20413;-45
2023/01/20 18:11:44;;;;;;;13.25;7.65;;;2.00;99.90;;;;;;20457510;28;20051;-46
2023/01/20 18:21:46;;;;;;;13.40;8.65;;;1.90;99.90;;;;;;20471271;28;20475;-46
2023/01/20 18:31:48;;;;;;;10.30;6.90;;;1.70;99.90;;;;;;20464793;28;20066;-45
2023/01/20 18:41:50;;;;;;;17.83;9.43;;;1.70;99.90;;;;;;20473579;28;20053;-46
2023/01/20 18:51:51;;;;;;;19.13;9.93;;;1.60;99.90;;;;;;20468520;28;20513;-45
2023/01/20 19:01:54;;;;;;;22.75;11.60;;;1.60;99.90;;;;;;20473907;28;20082;-46
2023/01/20 19:11:55;;;;;;;22.10;10.90;;;1.40;99.90;;;;;;20474078;28;20063;-46
2023/01/20 19:21:56;;;;;;;18.77;10.13;;;1.50;99.90;;;;;;20471539;28;20086;-45
2023/01/20 19:31:57;;;;;;;24.25;12.63;;;1.40;99.90;;;;;;20472086;28;20039;-44
2023/01/20 19:41:58;;;;;;;25.23;13.85;;;1.30;99.90;;;;;;20466800;28;20050;-44
2023/01/20 19:51:59;;;;;;;22.23;11.90;;;1.30;99.10;;;;;;20460248;28;20247;-44
2023/01/20 20:02:00;;;;;;;19.75;10.38;;;1.30;97.90;;;;;;20462774;28;20110;-44
2023/01/20 20:12:06;;;;;;;26.42;11.00;;;1.20;97.30;;;;;;20459378;28;20038;-44
2023/01/20 20:22:07;;;;;;;25.97;12.83;;;1.20;97.60;;;;;;20467685;28;20054;-44
2023/01/20 20:32:08;;;;;;;20.48;10.88;;;1.10;97.00;;;;;;20459465;28;20047;-44
2023/01/20 20:42:09;;;;;;;25.48;11.85;;;1.00;95.80;;;;;;20458821;28;20094;-44
2023/01/20 20:52:10;;;;;;;23.95;13.10;;;0.90;96.20;;;;;;20458893;28;20074;-44
2023/01/20 21:02:13;;;;;;;25.05;12.32;;;0.80;96.90;;;;;;20466511;28;20054;-45
2023/01/20 21:12:14;;;;;;;20.80;10.82;;;0.80;97.50;;;;;;20447000;28;20855;-45
2023/01/20 21:22:15;;;;;;;20.20;10.68;;;0.60;97.60;;;;;;20463363;28;20121;-45
2023/01/20 21:32:16;;;;;;;20.50;11.57;;;0.60;98.40;;;;;;20460072;28;20043;-45
2023/01/20 21:42:17;;;;;;;26.73;13.27;;;0.50;98.80;;;;;;20459233;28;20117;-45
2023/01/20 22:02:43;;;;;;;24.98;11.73;;;0.50;98.60;;;;;;20481282;28;20039;-45
2023/01/20 22:12:44;;;;;;;20.40;11.02;;;0.40;98.60;;;;;;20490687;28;23819;-45
2023/01/20 22:22:45;;;;;;;25.80;13.23;;;0.40;99.20;;;;;;20479796;28;20088;-45
2023/01/20 22:32:46;;;;;;;26.02;12.23;;;0.30;99.00;;;;;;20481396;28;20047;-45
2023/01/20 22:42:47;;;;;;;21.38;14.35;;;0.30;99.60;;;;;;20470383;28;20043;-45
2023/01/20 22:52:48;;;;;;;26.05;13.77;;;0.30;99.80;;;;;;20470522;28;20069;-45
2023/01/20 23:02:49;;;;;;;22.25;13.50;;;0.30;99.90;;;;;;20469316;28;20043;-45
2023/01/20 23:12:50;;;;;;;21.67;13.98;;;0.30;99.90;;;;;;20479617;28;20054;-45
2023/01/20 23:22:51;;;;;;;24.67;12.18;;;0.30;99.90;;;;;;20481684;28;20099;-45
2023/01/20 23:32:52;;;;;;;27.73;12.52;;;0.30;99.90;;;;;;20478506;28;20043;-45
2023/01/20 23:42:53;;;;;;;36.22;17.13;;;0.40;99.90;;;;;;20485237;28;20486;-45
2023/01/20 23:52:55;;;;;;;20.98;12.27;;;0.40;99.50;;;;;;20484202;28;20526;-45
